createdAt,value
2023-04-21T00:00:05.855Z,26.47
2023-04-21T00:01:05.906Z,26.46
2023-04-21T00:02:05.959Z,26.45
2023-04-21T00:03:06.121Z,26.44
2023-04-21T00:04:06.217Z,26.47
2023-04-21T00:05:06.146Z,26.48
2023-04-21T00:06:06.104Z,26.46
2023-04-21T00:07:06.103Z,26.47
2023-04-21T00:08:06.144Z,26.49
2023-04-21T00:09:06.167Z,26.50
2023-04-21T00:10:06.183Z,26.51
2023-04-21T00:11:06.228Z,26.53
2023-04-21T00:12:06.251Z,26.51
2023-04-21T00:13:06.291Z,26.52
2023-04-21T00:14:06.309Z,26.54
2023-04-21T00:15:06.379Z,26.53
2023-04-21T00:16:06.491Z,26.53
2023-04-21T00:17:06.451Z,26.53
2023-04-21T00:18:06.511Z,26.54
2023-04-21T00:19:06.513Z,26.54
2023-04-21T00:20:06.557Z,26.56
2023-04-21T00:21:06.578Z,26.56
2023-04-21T00:22:06.621Z,26.55
2023-04-21T00:23:06.646Z,26.56
2023-04-21T00:24:06.665Z,26.56
2023-04-21T00:25:06.724Z,26.57
2023-04-21T00:26:06.799Z,26.56
2023-04-21T00:27:06.782Z,26.57
2023-04-21T00:28:06.806Z,26.57
2023-04-21T00:29:06.859Z,26.56
2023-04-21T00:30:06.862Z,26.59
2023-04-21T00:31:06.948Z,26.60
2023-04-21T00:32:06.938Z,26.61
2023-04-21T00:33:06.933Z,26.64
2023-04-21T00:34:06.960Z,26.65
2023-04-21T00:35:06.988Z,26.64
2023-04-21T00:36:07.012Z,26.66
2023-04-21T00:37:07.082Z,26.66
2023-04-21T00:38:07.120Z,26.66
2023-04-21T00:39:07.143Z,26.68
2023-04-21T00:40:07.177Z,26.70
2023-04-21T00:41:07.256Z,26.69
2023-04-21T00:42:07.265Z,26.70
2023-04-21T00:43:07.318Z,26.72
2023-04-21T00:44:07.354Z,26.70
2023-04-21T00:45:07.409Z,26.73
2023-04-21T00:46:07.469Z,26.75
2023-04-21T00:47:07.536Z,26.77
2023-04-21T00:48:07.538Z,26.77
2023-04-21T00:49:07.547Z,26.77
2023-04-21T00:50:07.604Z,26.77
2023-04-21T00:51:07.655Z,26.82
2023-04-21T00:52:07.688Z,26.80
2023-04-21T00:53:07.696Z,26.83
2023-04-21T00:54:07.753Z,26.81
2023-04-21T00:55:07.760Z,26.80
2023-04-21T00:56:07.795Z,26.79
2023-04-21T00:57:07.810Z,26.80
2023-04-21T00:58:07.828Z,26.83
2023-04-21T00:59:07.862Z,26.82
2023-04-21T01:00:07.868Z,26.83
2023-04-21T01:01:08.024Z,26.83
2023-04-21T01:02:07.992Z,26.84
2023-04-21T01:03:08.195Z,26.82
2023-04-21T01:04:08.160Z,26.82
2023-04-21T01:05:07.953Z,26.85
2023-04-21T01:06:07.990Z,26.82
2023-04-21T01:07:08.011Z,26.83
2023-04-21T01:08:08.040Z,26.84
2023-04-21T01:09:08.080Z,26.85
2023-04-21T01:10:08.147Z,26.83
2023-04-21T01:11:08.167Z,26.84
2023-04-21T01:12:08.162Z,26.84
2023-04-21T01:13:08.174Z,26.84
2023-04-21T01:14:08.189Z,26.83
2023-04-21T01:15:08.226Z,26.87
2023-04-21T01:16:08.315Z,26.87
2023-04-21T01:17:08.369Z,26.89
2023-04-21T01:18:08.369Z,26.87
2023-04-21T01:19:08.308Z,26.87
2023-04-21T01:20:08.354Z,26.89
2023-04-21T01:21:08.364Z,26.89
2023-04-21T01:22:08.373Z,26.89
2023-04-21T01:23:08.432Z,26.90
2023-04-21T01:24:08.460Z,26.92
2023-04-21T01:25:08.492Z,26.92
2023-04-21T01:26:08.509Z,26.91
2023-04-21T01:27:09.500Z,26.94
2023-04-21T01:28:08.528Z,26.93
2023-04-21T01:29:08.561Z,26.92
2023-04-21T01:30:08.589Z,26.95
2023-04-21T01:31:08.622Z,26.96
2023-04-21T01:32:08.730Z,26.95
2023-04-21T01:33:08.706Z,26.97
2023-04-21T01:34:08.690Z,26.97
2023-04-21T01:35:08.744Z,26.97
2023-04-21T01:36:08.786Z,26.96
2023-04-21T01:37:08.778Z,26.97
2023-04-21T01:38:08.803Z,26.99
2023-04-21T01:39:08.855Z,26.97
2023-04-21T01:40:08.844Z,27.01
2023-04-21T01:41:08.936Z,26.98
2023-04-21T01:42:08.920Z,26.97
2023-04-21T01:43:08.952Z,26.98
2023-04-21T01:44:08.978Z,26.98
2023-04-21T01:45:09.024Z,26.95
2023-04-21T01:46:09.195Z,26.94
2023-04-21T01:47:09.053Z,26.94
2023-04-21T01:48:09.113Z,26.96
2023-04-21T01:49:09.113Z,26.96
2023-04-21T01:50:09.113Z,26.97
2023-04-21T01:51:09.160Z,26.96
2023-04-21T01:52:09.139Z,26.93
2023-04-21T01:53:09.155Z,26.95
2023-04-21T01:54:09.186Z,26.93
2023-04-21T01:55:09.205Z,26.94
2023-04-21T01:56:09.225Z,26.96
2023-04-21T01:57:09.370Z,26.97
2023-04-21T01:58:09.299Z,26.98
2023-04-21T01:59:09.346Z,26.96
2023-04-21T02:00:09.363Z,26.95
2023-04-21T02:01:09.480Z,26.95
2023-04-21T02:02:09.598Z,26.95
2023-04-21T02:03:09.545Z,26.94
2023-04-21T02:04:09.628Z,26.94
2023-04-21T02:05:09.481Z,26.95
2023-04-21T02:06:09.551Z,26.94
2023-04-21T02:07:09.584Z,26.94
2023-04-21T02:08:09.617Z,26.94
2023-04-21T02:09:09.634Z,26.93
2023-04-21T02:10:09.677Z,26.94
2023-04-21T02:11:09.751Z,26.92
2023-04-21T02:12:09.750Z,26.91
2023-04-21T02:13:09.788Z,26.90
2023-04-21T02:14:09.830Z,26.92
2023-04-21T02:15:09.881Z,26.91
2023-04-21T02:16:13.750Z,26.90
2023-04-21T02:17:09.879Z,26.92
2023-04-21T02:18:09.937Z,26.92
2023-04-21T02:19:09.858Z,26.91
2023-04-21T02:20:09.853Z,26.91
2023-04-21T02:21:09.888Z,26.89
2023-04-21T02:22:09.868Z,26.90
2023-04-21T02:23:09.838Z,26.88
2023-04-21T02:24:09.849Z,26.90
2023-04-21T02:25:09.822Z,26.89
2023-04-21T02:26:09.832Z,26.90
2023-04-21T02:27:09.825Z,26.88
2023-04-21T02:28:09.816Z,26.87
2023-04-21T02:29:09.793Z,26.90
2023-04-21T02:30:09.819Z,26.91
2023-04-21T02:31:09.832Z,26.94
2023-04-21T02:33:09.824Z,26.95
2023-04-21T02:34:09.752Z,26.97
2023-04-21T02:35:09.749Z,26.99
2023-04-21T02:36:09.781Z,27.01
2023-04-21T02:37:09.740Z,27.02
2023-04-21T02:38:09.743Z,27.01
2023-04-21T02:39:09.735Z,27.03
2023-04-21T02:40:09.730Z,27.04
2023-04-21T02:41:09.713Z,27.03
2023-04-21T02:42:09.730Z,27.00
2023-04-21T02:43:09.777Z,27.05
2023-04-21T02:44:09.836Z,27.00
2023-04-21T02:45:09.867Z,27.05
2023-04-21T02:46:09.965Z,27.02
2023-04-21T02:47:09.976Z,27.03
2023-04-21T02:48:10.039Z,27.03
2023-04-21T02:49:10.585Z,27.06
2023-04-21T02:50:10.008Z,27.05
2023-04-21T02:51:10.053Z,27.08
2023-04-21T02:52:10.073Z,27.07
2023-04-21T02:53:10.083Z,27.07
2023-04-21T02:54:10.097Z,27.07
2023-04-21T02:55:10.145Z,27.07
2023-04-21T02:56:10.206Z,27.05
2023-04-21T02:57:10.217Z,27.07
2023-04-21T02:58:10.237Z,27.05
2023-04-21T02:59:10.289Z,27.05
2023-04-21T03:00:10.315Z,27.07
2023-04-21T03:01:10.418Z,27.04
2023-04-21T03:02:10.422Z,27.04
2023-04-21T03:03:10.491Z,27.04
2023-04-21T03:04:10.479Z,27.04
2023-04-21T03:05:10.445Z,27.04
2023-04-21T03:06:10.481Z,27.02
2023-04-21T03:07:10.514Z,27.02
2023-04-21T03:08:10.553Z,27.04
2023-04-21T03:09:10.587Z,27.03
2023-04-21T03:10:10.643Z,27.05
2023-04-21T03:11:10.674Z,27.06
2023-04-21T03:12:10.741Z,27.05
2023-04-21T03:13:10.750Z,27.05
2023-04-21T03:14:10.808Z,27.06
2023-04-21T03:15:10.847Z,27.03
2023-04-21T03:16:10.925Z,27.01
2023-04-21T03:17:10.926Z,27.04
2023-04-21T03:18:11.023Z,27.03
2023-04-21T03:19:10.954Z,27.03
2023-04-21T03:20:10.973Z,27.00
2023-04-21T03:21:11.025Z,27.05
2023-04-21T03:22:11.046Z,27.08
2023-04-21T03:23:11.064Z,27.06
2023-04-21T03:24:11.088Z,27.07
2023-04-21T03:25:11.113Z,27.06
2023-04-21T03:26:11.162Z,27.05
2023-04-21T03:27:11.316Z,27.07
2023-04-21T03:28:11.272Z,27.07
2023-04-21T03:29:11.328Z,27.07
2023-04-21T03:30:11.360Z,27.07
2023-04-21T03:31:11.410Z,27.08
2023-04-21T03:32:11.530Z,27.08
2023-04-21T03:33:11.537Z,27.09
2023-04-21T03:34:11.529Z,27.09
2023-04-21T03:35:11.545Z,27.09
2023-04-21T03:36:11.561Z,27.08
2023-04-21T03:37:11.594Z,27.08
2023-04-21T03:38:11.616Z,27.09
2023-04-21T03:39:19.794Z,27.08
2023-04-21T03:40:12.620Z,27.09
2023-04-21T03:41:11.607Z,27.11
2023-04-21T03:42:11.628Z,27.11
2023-04-21T03:43:11.597Z,27.10
2023-04-21T03:44:11.590Z,27.09
2023-04-21T03:45:11.595Z,27.12
2023-04-21T03:46:11.628Z,27.11
2023-04-21T03:47:11.584Z,27.12
2023-04-21T03:48:11.577Z,27.10
2023-04-21T03:49:11.592Z,27.11
2023-04-21T03:50:11.554Z,27.11
2023-04-21T03:51:11.550Z,27.12
2023-04-21T03:52:11.550Z,27.10
2023-04-21T03:53:11.553Z,27.09
2023-04-21T03:54:11.558Z,27.09
2023-04-21T03:55:11.590Z,27.10
2023-04-21T03:56:11.594Z,27.10
2023-04-21T03:57:11.613Z,27.08
2023-04-21T03:58:11.640Z,27.12
2023-04-21T03:59:11.689Z,27.10
2023-04-21T04:00:11.700Z,27.11
2023-04-21T04:01:11.718Z,27.11
2023-04-21T04:02:11.809Z,27.08
2023-04-21T04:03:11.864Z,27.08
2023-04-21T04:04:11.996Z,27.08
2023-04-21T04:05:11.808Z,27.07
2023-04-21T04:06:11.837Z,27.08
2023-04-21T04:07:11.880Z,27.07
2023-04-21T04:08:11.911Z,27.07
2023-04-21T04:09:11.962Z,27.07
2023-04-21T04:10:12.022Z,27.07
2023-04-21T04:11:12.039Z,27.05
2023-04-21T04:12:12.094Z,27.04
2023-04-21T04:13:12.079Z,27.05
2023-04-21T04:14:12.120Z,27.04
2023-04-21T04:15:12.131Z,27.04
2023-04-21T04:16:12.165Z,27.05
2023-04-21T04:17:12.182Z,27.03
2023-04-21T04:18:12.180Z,27.02
2023-04-21T04:19:12.662Z,27.02
2023-04-21T04:20:12.238Z,27.02
2023-04-21T04:21:12.313Z,27.05
2023-04-21T04:22:12.326Z,26.99
2023-04-21T04:23:12.360Z,26.98
2023-04-21T04:24:12.363Z,26.99
2023-04-21T04:25:12.412Z,26.97
2023-04-21T04:26:12.444Z,26.96
2023-04-21T04:27:12.486Z,26.97
2023-04-21T04:28:12.540Z,26.94
2023-04-21T04:29:12.577Z,26.94
2023-04-21T04:30:12.581Z,26.96
2023-04-21T04:31:12.642Z,26.93
2023-04-21T04:32:12.630Z,26.94
2023-04-21T04:33:12.670Z,26.97
2023-04-21T04:34:12.692Z,26.94
2023-04-21T04:35:12.719Z,26.96
2023-04-21T04:36:12.754Z,26.93
2023-04-21T04:37:12.766Z,26.95
2023-04-21T04:38:12.818Z,26.96
2023-04-21T04:39:12.848Z,26.95
2023-04-21T04:40:12.853Z,26.95
2023-04-21T04:41:12.890Z,26.97
2023-04-21T04:42:12.938Z,26.99
2023-04-21T04:43:12.955Z,27.01
2023-04-21T04:44:13.043Z,27.01
2023-04-21T04:45:13.067Z,27.03
2023-04-21T04:46:13.315Z,27.01
2023-04-21T04:47:13.173Z,27.00
2023-04-21T04:48:13.171Z,27.00
2023-04-21T04:49:13.222Z,27.02
2023-04-21T04:50:13.258Z,27.00
2023-04-21T04:51:13.307Z,27.02
2023-04-21T04:52:13.327Z,27.02
2023-04-21T04:53:13.309Z,27.02
2023-04-21T04:54:13.365Z,27.02
2023-04-21T04:55:13.396Z,27.01
2023-04-21T04:56:13.479Z,27.02
2023-04-21T04:57:13.484Z,27.04
2023-04-21T04:58:13.546Z,27.03
2023-04-21T04:59:13.581Z,27.00
2023-04-21T05:00:13.616Z,27.03
2023-04-21T05:01:13.630Z,27.01
2023-04-21T05:02:13.820Z,27.00
2023-04-21T05:03:13.793Z,27.01
2023-04-21T05:04:14.044Z,27.01
2023-04-21T05:05:13.909Z,26.99
2023-04-21T05:06:13.863Z,27.01
2023-04-21T05:07:14.097Z,27.01
2023-04-21T05:08:15.744Z,27.03
2023-04-21T05:09:13.913Z,27.04
2023-04-21T05:10:13.917Z,27.03
2023-04-21T05:11:13.920Z,27.03
2023-04-21T05:12:13.899Z,27.04
2023-04-21T05:13:13.901Z,27.04
2023-04-21T05:14:13.897Z,27.03
2023-04-21T05:15:13.876Z,27.02
2023-04-21T05:16:13.916Z,27.02
2023-04-21T05:17:13.863Z,27.00
2023-04-21T05:18:13.873Z,27.00
2023-04-21T05:19:13.840Z,27.01
2023-04-21T05:20:13.848Z,27.01
2023-04-21T05:21:13.835Z,27.02
2023-04-21T05:22:13.836Z,27.02
2023-04-21T05:23:13.886Z,27.04
2023-04-21T05:24:13.825Z,26.99
2023-04-21T05:25:13.794Z,27.00
2023-04-21T05:26:13.827Z,27.12
2023-04-21T05:27:13.795Z,27.28
2023-04-21T05:28:13.798Z,27.33
2023-04-21T05:29:13.819Z,27.43
2023-04-21T05:30:13.788Z,27.94
2023-04-21T05:31:13.753Z,29.41
2023-04-21T05:32:13.811Z,28.84
2023-04-21T05:33:13.796Z,29.16
2023-04-21T05:34:13.737Z,30.10
2023-04-21T05:35:13.726Z,30.25
2023-04-21T05:36:13.749Z,30.45
2023-04-21T05:37:14.599Z,30.42
2023-04-21T05:38:13.700Z,30.25
2023-04-21T05:39:13.686Z,30.12
2023-04-21T05:40:13.706Z,30.17
2023-04-21T05:41:13.683Z,30.06
2023-04-21T05:42:14.141Z,30.47
2023-04-21T05:43:13.658Z,30.20
2023-04-21T05:44:13.730Z,30.12
2023-04-21T05:45:13.652Z,29.89
2023-04-21T05:46:13.701Z,29.48
2023-04-21T05:47:13.670Z,29.33
2023-04-21T05:48:13.880Z,29.35
2023-04-21T05:49:13.632Z,29.43
2023-04-21T05:50:13.632Z,29.45
2023-04-21T05:51:13.620Z,29.37
2023-04-21T05:52:14.125Z,29.35
2023-04-21T05:53:13.644Z,29.33
2023-04-21T05:54:13.693Z,29.27
2023-04-21T05:55:13.709Z,29.24
2023-04-21T05:56:13.753Z,29.33
2023-04-21T05:57:13.803Z,29.77
2023-04-21T05:58:13.888Z,30.28
2023-04-21T05:59:13.891Z,30.17
2023-04-21T06:00:13.900Z,30.23
2023-04-21T06:01:13.935Z,30.13
2023-04-21T06:02:14.072Z,30.46
2023-04-21T06:03:14.220Z,30.62
2023-04-21T06:04:14.500Z,30.28
2023-04-21T06:05:14.164Z,30.13
2023-04-21T06:06:14.178Z,30.14
2023-04-21T06:07:15.522Z,30.24
2023-04-21T06:08:14.314Z,30.31
2023-04-21T06:09:14.275Z,30.27
2023-04-21T06:10:14.324Z,30.33
2023-04-21T06:11:14.358Z,30.20
2023-04-21T06:12:14.384Z,30.07
2023-04-21T06:13:14.409Z,30.07
2023-04-21T06:14:14.403Z,30.22
2023-04-21T06:15:14.446Z,29.84
2023-04-21T06:16:14.526Z,29.66
2023-04-21T06:17:14.505Z,29.92
2023-04-21T06:18:14.585Z,29.68
2023-04-21T06:19:14.622Z,29.62
2023-04-21T06:20:14.649Z,29.63
2023-04-21T06:21:14.730Z,29.84
2023-04-21T06:22:14.727Z,29.73
2023-04-21T06:23:14.780Z,29.57
2023-04-21T06:24:14.826Z,29.43
2023-04-21T06:25:14.900Z,29.06
2023-04-21T06:26:14.909Z,29.24
2023-04-21T06:27:15.145Z,27.52
2023-04-21T06:28:14.996Z,28.39
2023-04-21T06:29:15.059Z,28.07
2023-04-21T06:30:15.101Z,28.15
2023-04-21T06:31:15.207Z,28.31
2023-04-21T06:32:15.627Z,28.65
2023-04-21T06:33:15.175Z,29.18
2023-04-21T06:34:15.236Z,29.04
2023-04-21T06:35:15.305Z,29.79
2023-04-21T06:36:17.485Z,29.79
2023-04-21T06:37:15.649Z,29.52
2023-04-21T06:38:15.300Z,29.54
2023-04-21T06:39:15.272Z,29.33
2023-04-21T06:40:15.279Z,29.29
2023-04-21T06:41:15.233Z,29.40
2023-04-21T06:42:15.249Z,29.39
2023-04-21T06:43:15.323Z,29.30
2023-04-21T06:44:15.231Z,29.31
2023-04-21T06:45:15.226Z,29.50
2023-04-21T06:46:15.230Z,29.66
2023-04-21T06:47:15.250Z,29.57
2023-04-21T06:48:15.263Z,29.96
2023-04-21T06:49:15.211Z,29.68
2023-04-21T06:50:15.210Z,29.54
2023-04-21T06:51:15.179Z,29.60
2023-04-21T06:52:16.373Z,29.78
2023-04-21T06:53:15.306Z,29.75
2023-04-21T06:54:15.332Z,29.59
2023-04-21T06:55:15.355Z,29.44
2023-04-21T06:56:15.407Z,29.72
2023-04-21T06:57:15.725Z,29.62
2023-04-21T06:58:15.440Z,29.62
2023-04-21T06:59:15.525Z,29.44
2023-04-21T07:00:15.510Z,29.31
2023-04-21T07:01:15.680Z,29.37
2023-04-21T07:02:15.696Z,29.58
2023-04-21T07:03:15.766Z,29.46
2023-04-21T07:04:15.629Z,29.64
2023-04-21T07:05:15.672Z,29.78
2023-04-21T07:06:15.684Z,29.54
2023-04-21T07:07:15.734Z,29.30
2023-04-21T07:08:15.804Z,29.17
2023-04-21T07:09:15.785Z,29.15
2023-04-21T07:10:15.841Z,29.18
2023-04-21T07:11:15.937Z,29.13
2023-04-21T07:12:15.882Z,29.47
2023-04-21T07:13:15.926Z,29.66
2023-04-21T07:14:15.862Z,29.46
2023-04-21T07:15:15.888Z,29.27
2023-04-21T07:16:15.985Z,28.96
2023-04-21T07:17:15.951Z,28.87
2023-04-21T07:18:16.027Z,28.98
2023-04-21T07:19:15.964Z,29.09
2023-04-21T07:20:16.003Z,28.97
2023-04-21T07:21:15.982Z,28.79
2023-04-21T07:22:16.014Z,28.85
2023-04-21T07:23:16.013Z,29.10
2023-04-21T07:24:16.052Z,29.24
2023-04-21T07:25:16.076Z,29.32
2023-04-21T07:26:16.106Z,29.85
2023-04-21T07:27:16.157Z,29.93
2023-04-21T07:28:16.133Z,29.91
2023-04-21T07:29:16.118Z,29.98
2023-04-21T07:30:16.186Z,29.97
2023-04-21T07:31:16.217Z,30.15
2023-04-21T07:32:16.243Z,29.93
2023-04-21T07:33:16.330Z,29.89
2023-04-21T07:34:16.329Z,29.95
2023-04-21T07:35:16.350Z,29.98
2023-04-21T07:36:16.480Z,29.97
2023-04-21T07:37:16.670Z,30.03
2023-04-21T07:38:16.393Z,30.01
2023-04-21T07:39:16.466Z,30.04
2023-04-21T07:40:16.437Z,30.16
2023-04-21T07:41:16.439Z,30.10
2023-04-21T07:42:16.496Z,30.09
2023-04-21T07:43:16.473Z,30.04
2023-04-21T07:44:16.527Z,30.12
2023-04-21T07:45:16.579Z,30.10
2023-04-21T07:46:16.588Z,30.12
2023-04-21T07:47:16.799Z,30.29
2023-04-21T07:48:16.625Z,30.21
2023-04-21T07:49:16.646Z,30.16
2023-04-21T07:50:16.643Z,30.15
2023-04-21T07:51:16.652Z,30.06
2023-04-21T07:52:16.703Z,30.13
2023-04-21T07:53:16.739Z,30.09
2023-04-21T07:54:16.767Z,29.98
2023-04-21T07:55:16.796Z,29.97
2023-04-21T07:56:16.777Z,29.85
2023-04-21T07:57:17.150Z,29.76
2023-04-21T07:58:16.792Z,29.38
2023-04-21T07:59:16.972Z,29.39
2023-04-21T08:00:16.885Z,29.07
2023-04-21T08:01:16.959Z,29.05
2023-04-21T08:02:17.227Z,28.87
2023-04-21T08:03:17.131Z,28.83
2023-04-21T08:04:17.148Z,28.96
2023-04-21T08:05:17.277Z,28.86
2023-04-21T08:06:17.474Z,28.80
2023-04-21T08:07:17.165Z,29.02
2023-04-21T08:08:17.126Z,28.96
2023-04-21T08:09:17.255Z,29.04
2023-04-21T08:10:17.210Z,29.11
2023-04-21T08:11:17.192Z,29.12
2023-04-21T08:12:17.253Z,29.32
2023-04-21T08:13:17.272Z,29.40
2023-04-21T08:14:17.486Z,29.39
2023-04-21T08:15:17.320Z,29.34
2023-04-21T08:16:17.402Z,29.38
2023-04-21T08:17:17.700Z,29.80
2023-04-21T08:18:19.195Z,29.55
2023-04-21T08:19:17.629Z,29.54
2023-04-21T08:20:17.408Z,29.68
2023-04-21T08:21:17.403Z,29.91
2023-04-21T08:22:17.702Z,29.25
2023-04-21T08:23:17.448Z,29.08
2023-04-21T08:24:17.442Z,28.73
2023-04-21T08:25:17.363Z,28.08
2023-04-21T08:26:17.341Z,28.22
2023-04-21T08:27:17.658Z,28.20
2023-04-21T08:28:17.335Z,28.05
2023-04-21T08:29:17.612Z,28.11
2023-04-21T08:30:17.326Z,28.05
2023-04-21T08:31:17.336Z,27.90
2023-04-21T08:32:17.297Z,27.97
2023-04-21T08:33:17.328Z,27.99
2023-04-21T08:34:17.296Z,28.03
2023-04-21T08:35:17.338Z,28.25
2023-04-21T08:36:28.450Z,28.63
2023-04-21T08:37:18.704Z,29.04
2023-04-21T08:38:17.473Z,29.55
2023-04-21T08:39:17.410Z,29.84
2023-04-21T08:40:17.248Z,29.65
2023-04-21T08:41:17.241Z,29.56
2023-04-21T08:42:17.232Z,29.81
2023-04-21T08:43:17.369Z,29.60
2023-04-21T08:44:17.456Z,29.76
2023-04-21T08:45:17.235Z,30.15
2023-04-21T08:46:17.301Z,29.61
2023-04-21T08:47:17.199Z,29.44
2023-04-21T08:48:17.185Z,29.41
2023-04-21T08:49:17.312Z,29.29
2023-04-21T08:50:17.175Z,29.36
2023-04-21T08:51:17.154Z,29.24
2023-04-21T08:52:17.177Z,29.11
2023-04-21T08:53:17.163Z,29.22
2023-04-21T08:54:17.186Z,28.99
2023-04-21T08:55:17.226Z,29.22
2023-04-21T08:56:17.266Z,29.20
2023-04-21T08:57:17.311Z,29.16
2023-04-21T08:58:17.304Z,29.19
2023-04-21T08:59:17.432Z,29.21
2023-04-21T09:00:17.358Z,29.19
2023-04-21T09:01:17.488Z,29.33
2023-04-21T09:02:17.498Z,29.33
2023-04-21T09:03:25.490Z,29.11
2023-04-21T09:04:18.605Z,29.15
2023-04-21T09:05:17.606Z,28.89
2023-04-21T09:06:17.712Z,28.81
2023-04-21T09:07:17.433Z,28.90
2023-04-21T09:08:17.402Z,29.18
2023-04-21T09:09:17.546Z,29.10
2023-04-21T09:10:17.397Z,29.29
2023-04-21T09:11:17.413Z,29.08
2023-04-21T09:12:17.371Z,28.95
2023-04-21T09:13:17.389Z,29.39
2023-04-21T09:14:17.353Z,29.20
2023-04-21T09:15:17.356Z,29.19
2023-04-21T09:16:17.405Z,29.24
2023-04-21T09:17:17.537Z,29.28
2023-04-21T09:18:17.452Z,29.24
2023-04-21T09:19:17.416Z,29.06
2023-04-21T09:20:17.339Z,29.02
2023-04-21T09:21:18.153Z,29.30
2023-04-21T09:22:17.315Z,29.18
2023-04-21T09:23:17.321Z,29.15
2023-04-21T09:24:17.373Z,29.11
2023-04-21T09:25:17.413Z,29.85
2023-04-21T09:26:17.366Z,30.15
2023-04-21T09:27:17.710Z,29.50
2023-04-21T09:28:17.706Z,29.51
2023-04-21T09:29:17.799Z,29.18
2023-04-21T09:30:17.451Z,29.70
2023-04-21T09:31:17.836Z,29.42
2023-04-21T09:32:17.564Z,29.19
2023-04-21T09:33:28.021Z,29.12
2023-04-21T09:34:18.594Z,29.17
2023-04-21T09:35:17.587Z,29.07
2023-04-21T09:36:17.585Z,29.04
2023-04-21T09:37:19.103Z,29.24
2023-04-21T09:38:17.560Z,28.93
2023-04-21T09:40:17.576Z,28.88
2023-04-21T09:41:17.546Z,28.99
2023-04-21T09:42:17.525Z,28.23
2023-04-21T09:43:17.520Z,28.47
2023-04-21T09:44:18.181Z,28.63
2023-04-21T09:45:36.645Z,28.39
2023-04-21T09:46:18.537Z,28.53
2023-04-21T09:47:17.653Z,27.90
2023-04-21T09:48:17.529Z,28.02
2023-04-21T09:49:17.540Z,28.27
2023-04-21T09:51:25.615Z,28.00
2023-04-21T09:52:19.650Z,28.13
2023-04-21T09:53:17.500Z,28.18
2023-04-21T09:55:17.499Z,27.67
2023-04-21T09:56:17.469Z,27.53
2023-04-21T09:57:17.708Z,27.36
2023-04-21T09:58:17.703Z,27.60
2023-04-21T09:59:17.456Z,28.04
2023-04-21T10:00:17.479Z,28.07
2023-04-21T10:01:17.498Z,28.25
2023-04-21T10:02:17.717Z,27.62
2023-04-21T10:03:17.531Z,26.68
2023-04-21T10:04:17.756Z,26.37
2023-04-21T10:05:17.506Z,26.15
2023-04-21T10:06:17.407Z,26.26
2023-04-21T10:07:17.748Z,27.01
2023-04-21T10:08:17.430Z,27.29
2023-04-21T10:09:17.393Z,27.35
2023-04-21T10:10:17.551Z,27.37
2023-04-21T10:11:17.387Z,27.42
2023-04-21T10:12:17.393Z,27.45
2023-04-21T10:13:17.771Z,27.96
2023-04-21T10:14:17.516Z,27.40
2023-04-21T10:15:17.325Z,27.53
2023-04-21T10:16:17.393Z,27.24
2023-04-21T10:17:18.086Z,27.42
2023-04-21T10:18:17.755Z,27.62
2023-04-21T10:19:17.594Z,28.13
2023-04-21T10:20:17.321Z,28.56
2023-04-21T10:21:17.301Z,29.27
2023-04-21T10:22:17.290Z,29.24
2023-04-21T10:23:17.744Z,28.92
2023-04-21T10:24:17.536Z,28.89
2023-04-21T10:25:17.266Z,27.75
2023-04-21T10:26:17.235Z,27.78
2023-04-21T10:27:17.264Z,27.81
2023-04-21T10:28:17.260Z,27.57
2023-04-21T10:29:17.336Z,27.68
2023-04-21T10:30:17.279Z,27.78
2023-04-21T10:31:17.394Z,27.67
2023-04-21T10:32:17.201Z,27.34
2023-04-21T10:33:17.189Z,27.63
2023-04-21T10:34:17.274Z,27.52
2023-04-21T10:35:17.180Z,27.38
2023-04-21T10:36:17.181Z,27.22
2023-04-21T10:37:17.255Z,27.33
2023-04-21T10:38:17.160Z,27.41
2023-04-21T10:39:17.235Z,26.76
2023-04-21T10:40:17.150Z,26.44
2023-04-21T10:41:17.150Z,25.99
2023-04-21T10:42:17.144Z,25.97
2023-04-21T10:43:17.151Z,26.40
2023-04-21T10:44:17.169Z,26.26
2023-04-21T10:45:17.118Z,25.93
2023-04-21T10:46:17.163Z,26.15
2023-04-21T10:47:17.119Z,26.13
2023-04-21T10:48:17.107Z,25.74
2023-04-21T10:49:17.082Z,26.10
2023-04-21T10:50:17.155Z,26.45
2023-04-21T10:51:17.060Z,26.40
2023-04-21T10:52:17.059Z,26.47
2023-04-21T10:53:17.077Z,25.31
2023-04-21T10:54:17.340Z,25.10
2023-04-21T10:55:17.220Z,25.22
2023-04-21T10:56:17.226Z,25.22
2023-04-21T10:57:17.254Z,25.38
2023-04-21T10:58:17.305Z,25.49
2023-04-21T10:59:17.485Z,25.19
2023-04-21T11:00:17.392Z,25.44
2023-04-21T11:01:17.416Z,25.84
2023-04-21T11:02:17.756Z,25.55
2023-04-21T11:03:17.602Z,25.25
2023-04-21T11:04:18.010Z,25.83
2023-04-21T11:05:17.523Z,25.69
2023-04-21T11:06:17.536Z,25.78
2023-04-21T11:07:17.561Z,25.75
2023-04-21T11:08:17.557Z,25.56
2023-04-21T11:09:17.621Z,25.61
2023-04-21T11:10:17.649Z,25.09
2023-04-21T11:11:17.682Z,24.93
2023-04-21T11:12:17.705Z,25.21
2023-04-21T11:13:18.285Z,25.17
2023-04-21T11:14:17.993Z,25.52
2023-04-21T11:15:17.801Z,25.11
2023-04-21T11:16:17.883Z,24.85
2023-04-21T11:17:17.879Z,24.97
2023-04-21T11:18:18.253Z,24.56
2023-04-21T11:19:17.965Z,24.71
2023-04-21T11:20:18.013Z,24.55
2023-04-21T11:21:18.391Z,24.38
2023-04-21T11:22:18.107Z,24.24
2023-04-21T11:23:18.235Z,24.15
2023-04-21T11:24:18.528Z,24.22
2023-04-21T11:25:18.252Z,24.26
2023-04-21T11:26:18.294Z,24.34
2023-04-21T11:27:18.360Z,24.32
2023-04-21T11:28:18.352Z,23.80
2023-04-21T11:29:18.405Z,23.84
2023-04-21T11:30:18.422Z,23.91
2023-04-21T11:31:18.560Z,23.99
2023-04-21T11:32:18.508Z,23.92
2023-04-21T11:33:18.616Z,24.36
2023-04-21T11:34:18.786Z,24.47
2023-04-21T11:35:18.611Z,24.35
2023-04-21T11:36:18.682Z,23.85
2023-04-21T11:37:18.684Z,23.67
2023-04-21T11:38:18.728Z,23.59
2023-04-21T11:39:21.364Z,23.81
2023-04-21T11:40:18.741Z,24.01
2023-04-21T11:41:18.758Z,24.27
2023-04-21T11:42:18.742Z,24.41
2023-04-21T11:43:18.742Z,24.20
2023-04-21T11:44:18.723Z,24.42
2023-04-21T11:45:21.303Z,28.59
2023-04-21T11:46:18.729Z,29.71
2023-04-21T11:47:18.688Z,27.95
2023-04-21T11:48:18.704Z,33.81
2023-04-21T11:49:18.780Z,33.70
2023-04-21T11:50:18.666Z,34.44
2023-04-21T11:51:21.366Z,34.41
2023-04-21T11:52:18.647Z,33.74
2023-04-21T11:53:18.681Z,33.42
2023-04-21T11:54:18.657Z,32.93
2023-04-21T11:55:18.632Z,32.23
2023-04-21T11:56:18.632Z,31.49
2023-04-21T11:57:18.639Z,30.97
2023-04-21T11:58:18.622Z,30.31
2023-04-21T11:59:18.611Z,29.64
2023-04-21T12:00:18.600Z,28.88
2023-04-21T12:01:18.583Z,28.50
2023-04-21T12:02:18.631Z,28.47
2023-04-21T12:03:18.858Z,28.27
2023-04-21T12:04:18.632Z,28.11
2023-04-21T12:05:18.597Z,27.90
2023-04-21T12:06:18.708Z,27.79
2023-04-21T12:07:18.659Z,27.71
2023-04-21T12:08:18.535Z,27.61
2023-04-21T12:09:18.562Z,27.52
2023-04-21T12:10:18.529Z,27.47
2023-04-21T12:11:18.521Z,27.42
2023-04-21T12:12:18.509Z,27.33
2023-04-21T12:13:18.506Z,27.28
2023-04-21T12:14:18.466Z,27.23
2023-04-21T12:15:18.465Z,27.14
2023-04-21T12:16:18.504Z,27.08
2023-04-21T12:17:18.465Z,27.03
2023-04-21T12:18:18.468Z,26.95
2023-04-21T12:19:18.458Z,26.92
2023-04-21T12:20:18.454Z,26.87
2023-04-21T12:21:18.431Z,26.83
2023-04-21T12:22:18.467Z,26.81
2023-04-21T12:23:18.418Z,26.75
2023-04-21T12:24:18.422Z,26.68
2023-04-21T12:25:18.450Z,26.66
2023-04-21T12:26:18.399Z,26.67
2023-04-21T12:27:18.398Z,26.64
2023-04-21T12:28:18.388Z,26.59
2023-04-21T12:29:18.393Z,26.62
2023-04-21T12:30:18.393Z,26.62
2023-04-21T12:31:18.412Z,26.60
2023-04-21T12:32:18.406Z,26.64
2023-04-21T12:33:18.480Z,26.58
2023-04-21T12:34:18.336Z,26.54
2023-04-21T12:35:18.368Z,26.50
2023-04-21T12:36:18.388Z,26.49
2023-04-21T12:37:18.341Z,26.58
2023-04-21T12:38:18.320Z,26.53
2023-04-21T12:39:18.365Z,26.48
2023-04-21T12:40:18.365Z,26.55
2023-04-21T12:41:18.401Z,26.47
2023-04-21T12:42:18.414Z,26.44
2023-04-21T12:43:18.423Z,26.42
2023-04-21T12:44:18.460Z,26.32
2023-04-21T12:45:18.468Z,26.31
2023-04-21T12:46:18.519Z,26.19
2023-04-21T12:47:18.508Z,26.18
2023-04-21T12:48:18.565Z,26.13
2023-04-21T12:49:18.553Z,26.16
2023-04-21T12:50:18.543Z,26.05
2023-04-21T12:51:18.604Z,26.12
2023-04-21T12:52:18.600Z,26.11
2023-04-21T12:53:18.615Z,25.94
2023-04-21T12:54:18.607Z,25.89
2023-04-21T12:55:18.634Z,25.90
2023-04-21T12:56:18.649Z,25.87